Time;durP1;ratioP1;P1;durP2;ratioP2;P2;SDS_P1;SDS_P2;PMS_P1;PMS_P2;Temp;Humidity;BMP_temperature;BMP_pressure;BME280_temperature;BME280_humidity;BME280_pressure;Samples;Min_cycle;Max_cycle;Signal;HPM_P1;HPM_P2
2024/04/17 00:03:30;;;;;;;3.80;2.00;;;;;;;5.06;100.00;98845.06;177002;1261;59289;-84
2024/04/17 00:07:33;;;;;;;3.10;1.90;;;;;;;5.09;100.00;98843.59;177083;1263;46150;-84
2024/04/17 00:11:36;;;;;;;4.50;3.20;;;;;;;5.12;100.00;98841.77;176690;1264;46142;-84
2024/04/17 00:15:39;;;;;;;6.60;3.60;;;;;;;5.15;100.00;98837.77;177285;1263;46211;-84
2024/04/17 00:19:42;;;;;;;5.20;2.90;;;;;;;5.11;100.00;98846.39;177115;1263;46063;-84
2024/04/17 00:23:45;;;;;;;3.10;2.80;;;;;;;5.14;100.00;98843.52;177196;1262;58739;-84
2024/04/17 00:27:48;;;;;;;5.10;3.50;;;;;;;5.15;100.00;98846.98;176773;1263;46148;-83
2024/04/17 00:31:50;;;;;;;5.10;3.50;;;;;;;5.26;100.00;98849.37;176819;1264;46067;-82
2024/04/17 00:35:53;;;;;;;5.00;3.40;;;;;;;5.38;100.00;98853.17;176627;1263;46129;-83
2024/04/17 00:39:56;;;;;;;3.80;3.20;;;;;;;5.47;100.00;98848.19;177097;1263;46120;-83
2024/04/17 00:43:59;;;;;;;3.70;3.10;;;;;;;5.52;100.00;98853.08;176627;1263;59283;-83
2024/04/17 00:48:02;;;;;;;7.70;3.60;;;;;;;5.52;100.00;98847.91;176373;1264;46037;-82
2024/04/17 00:52:05;;;;;;;4.90;2.90;;;;;;;5.52;100.00;98852.49;176801;1263;45932;-83
2024/04/17 00:56:08;;;;;;;3.30;2.70;;;;;;;5.54;100.00;98854.82;176419;1264;46184;-83
2024/04/17 01:00:11;;;;;;;2.80;2.00;;;;;;;5.59;100.00;98860.39;176438;1264;45288;-83
2024/04/17 01:04:14;;;;;;;2.80;1.80;;;;;;;5.58;100.00;98864.86;176694;1263;57186;-83
2024/04/17 01:08:18;;;;;;;4.30;1.90;;;;;;;5.53;100.00;98864.02;176604;1263;46151;-83
2024/04/17 01:12:20;;;;;;;1.60;1.50;;;;;;;5.51;100.00;98871.92;177708;1263;46133;-83
2024/04/17 01:16:23;;;;;;;2.60;2.00;;;;;;;5.57;100.00;98867.73;177108;1263;44285;-84
2024/04/17 01:20:26;;;;;;;3.50;1.60;;;;;;;5.57;100.00;98866.34;176636;1262;46242;-84
2024/04/17 01:24:30;;;;;;;1.20;0.90;;;;;;;5.57;100.00;98865.30;177354;1263;58311;-82
2024/04/17 01:28:33;;;;;;;3.20;1.90;;;;;;;5.63;100.00;98863.25;176798;1262;46029;-83
2024/04/17 01:32:36;;;;;;;1.50;1.00;;;;;;;5.57;100.00;98865.64;177580;1262;44106;-82
2024/04/17 01:36:39;;;;;;;2.90;1.10;;;;;;;5.57;100.00;98865.80;177099;1262;46127;-84
2024/04/17 01:40:41;;;;;;;2.80;1.30;;;;;;;5.62;100.00;98871.25;176427;1262;46213;-84
2024/04/17 01:44:44;;;;;;;1.70;1.30;;;;;;;5.64;98.32;98871.61;177648;1262;59400;-83
2024/04/17 01:48:47;;;;;;;2.20;1.20;;;;;;;5.63;97.93;98871.49;176933;1263;46067;-84
2024/04/17 01:52:50;;;;;;;2.30;1.50;;;;;;;5.65;98.38;98878.04;177001;1262;46096;-81
2024/04/17 01:56:52;;;;;;;2.00;1.90;;;;;;;5.65;97.79;98884.70;176845;1262;46229;-81
2024/04/17 02:00:56;;;;;;;4.00;1.40;;;;;;;5.64;97.90;98884.25;176381;1262;46161;-83
2024/04/17 02:04:58;;;;;;;1.70;1.00;;;;;;;5.65;97.21;98889.09;176564;1262;57791;-84
2024/04/17 02:09:02;;;;;;;2.30;1.20;;;;;;;5.68;96.00;98887.05;176532;1262;46152;-84
2024/04/17 02:13:05;;;;;;;3.20;1.30;;;;;;;5.73;96.19;98893.02;176596;1263;46177;-84
2024/04/17 02:17:07;;;;;;;10.90;1.30;;;;;;;5.68;95.41;98894.80;176702;1264;46030;-82
2024/04/17 02:21:10;;;;;;;1.00;0.90;;;;;;;5.65;94.84;98904.56;176754;1262;46126;-83
2024/04/17 02:25:13;;;;;;;1.40;1.10;;;;;;;5.58;94.50;98908.29;177232;1267;58249;-84
2024/04/17 02:29:16;;;;;;;1.50;1.10;;;;;;;5.55;95.21;98911.15;176636;1262;46146;-84
2024/04/17 02:33:19;;;;;;;4.50;1.30;;;;;;;5.54;97.06;98912.11;176958;1264;46100;-83
2024/04/17 02:37:22;;;;;;;1.80;1.00;;;;;;;5.53;97.81;98912.75;177408;1262;45435;-85
2024/04/17 02:41:25;;;;;;;0.80;0.60;;;;;;;5.55;97.94;98913.83;176636;1262;46034;-84
2024/04/17 02:45:28;;;;;;;1.70;1.30;;;;;;;5.57;99.38;98916.51;176525;1261;58532;-83
2024/04/17 02:49:30;;;;;;;5.30;1.50;;;;;;;5.54;98.99;98916.31;176684;1262;46132;-83
2024/04/17 02:53:33;;;;;;;2.40;0.90;;;;;;;5.56;99.89;98922.70;176791;1262;46014;-83
2024/04/17 02:57:36;;;;;;;2.00;0.80;;;;;;;5.55;100.00;98922.42;176605;1263;46104;-84
2024/04/17 03:01:39;;;;;;;2.10;1.80;;;;;;;5.48;100.00;98925.63;176910;1262;46016;-83
2024/04/17 03:05:42;;;;;;;4.00;1.80;;;;;;;5.48;100.00;98924.45;176568;1264;58666;-84
2024/04/17 03:09:46;;;;;;;6.10;2.90;;;;;;;5.46;100.00;98928.10;176450;1263;46477;-82
2024/04/17 03:13:50;;;;;;;4.20;2.70;;;;;;;5.47;100.00;98926.63;177059;1262;44042;-83
2024/04/17 03:17:53;;;;;;;2.20;1.60;;;;;;;5.47;100.00;98929.83;176744;1262;46174;-84
2024/04/17 03:21:56;;;;;;;3.70;3.40;;;;;;;5.43;100.00;98932.00;176698;1262;46158;-83
2024/04/17 03:26:00;;;;;;;4.20;2.30;;;;;;;5.47;100.00;98934.66;177117;1264;58551;-82
2024/04/17 03:30:04;;;;;;;4.80;2.40;;;;;;;5.40;100.00;98939.14;176784;1263;46234;-84
2024/04/17 03:34:07;;;;;;;5.70;2.40;;;;;;;5.40;100.00;98939.14;176994;1265;46123;-83
2024/04/17 03:38:10;;;;;;;14.20;4.80;;;;;;;5.39;100.00;98942.77;177364;1262;46046;-84
2024/04/17 03:42:12;;;;;;;6.00;5.00;;;;;;;5.40;100.00;98936.52;176870;1261;46067;-83
2024/04/17 03:46:15;;;;;;;7.20;3.70;;;;;;;5.40;100.00;98938.93;176917;1265;57932;-83
2024/04/17 03:50:18;;;;;;;5.10;4.10;;;;;;;5.34;100.00;98944.05;176760;1262;46051;-84
2024/04/17 03:54:21;;;;;;;5.10;4.60;;;;;;;5.43;100.00;98952.80;177301;1262;46050;-83
2024/04/17 03:58:24;;;;;;;6.40;3.10;;;;;;;5.40;100.00;98959.56;176707;1262;46138;-83
2024/04/17 04:02:26;;;;;;;5.70;2.60;;;;;;;5.43;100.00;98964.05;176986;1262;46337;-82
2024/04/17 04:06:30;;;;;;;6.00;3.60;;;;;;;5.46;100.00;98971.71;176846;1263;57920;-83
2024/04/17 04:10:32;;;;;;;2.40;2.10;;;;;;;5.44;100.00;98976.23;176974;1262;46102;-83
2024/04/17 04:14:35;;;;;;;6.90;4.10;;;;;;;5.44;100.00;98978.58;177314;1262;46007;-82
2024/04/17 04:18:38;;;;;;;7.10;3.10;;;;;;;5.42;100.00;98981.66;177127;1262;46115;-84
2024/04/17 04:22:41;;;;;;;7.10;4.40;;;;;;;5.42;100.00;98985.25;177362;1262;46586;-83
2024/04/17 04:26:44;;;;;;;10.10;5.00;;;;;;;5.40;100.00;98989.42;176561;1265;58360;-83
2024/04/17 04:30:47;;;;;;;7.60;4.20;;;;;;;5.42;100.00;98992.26;176765;1262;46124;-83
2024/04/17 04:34:49;;;;;;;3.80;3.40;;;;;;;5.38;100.00;98997.69;176674;1262;46103;-83
2024/04/17 04:38:52;;;;;;;12.50;5.50;;;;;;;5.43;100.00;99005.88;176864;1261;46126;-83
2024/04/17 04:42:55;;;;;;;5.40;4.30;;;;;;;5.47;100.00;99004.02;176951;1262;46032;-84
2024/04/17 04:47:01;;;;;;;12.40;4.60;;;;;;;5.42;100.00;99006.30;176956;1262;58214;-84
2024/04/17 04:51:04;;;;;;;6.10;3.80;;;;;;;5.43;100.00;99009.20;176840;1262;46041;-81
2024/04/17 04:55:07;;;;;;;5.10;3.50;;;;;;;5.46;100.00;99014.95;176998;1262;46090;-82
2024/04/17 04:59:10;;;;;;;8.70;3.50;;;;;;;5.46;100.00;99026.55;177065;1262;46151;-82
2024/04/17 05:03:13;;;;;;;10.10;5.10;;;;;;;5.53;100.00;99025.45;176749;1265;46153;-83
2024/04/17 05:07:16;;;;;;;12.60;4.90;;;;;;;5.52;100.00;99029.08;177230;1262;59645;-84
2024/04/17 05:11:19;;;;;;;9.20;6.20;;;;;;;5.45;100.00;99030.36;177136;1265;46096;-84
2024/04/17 05:15:22;;;;;;;7.40;3.70;;;;;;;5.36;100.00;99028.73;176826;1262;46180;-84
2024/04/17 05:19:24;;;;;;;8.40;5.70;;;;;;;5.36;100.00;99031.75;177076;1262;46244;-83
2024/04/17 05:23:28;;;;;;;6.90;4.90;;;;;;;5.32;100.00;99035.05;177682;1262;44934;-83
2024/04/17 05:27:31;;;;;;;11.00;6.70;;;;;;;5.26;100.00;99041.67;176992;1262;59259;-81
2024/04/17 05:31:34;;;;;;;9.60;4.60;;;;;;;5.31;100.00;99047.11;177095;1262;46362;-83
2024/04/17 05:35:36;;;;;;;13.80;6.10;;;;;;;5.20;100.00;99048.46;177095;1262;46105;-83
2024/04/17 05:39:39;;;;;;;7.20;4.20;;;;;;;5.05;100.00;99055.27;177165;1265;46151;-83
2024/04/17 05:43:42;;;;;;;10.40;5.20;;;;;;;5.06;100.00;99059.64;177481;1262;46002;-83
2024/04/17 05:47:45;;;;;;;6.90;4.70;;;;;;;5.01;100.00;99065.11;177128;1262;58185;-85
2024/04/17 05:51:49;;;;;;;6.90;3.90;;;;;;;4.95;100.00;99066.77;176668;1262;46010;-84
2024/04/17 05:55:52;;;;;;;10.40;6.10;;;;;;;4.91;100.00;99066.01;176868;1262;46032;-83
2024/04/17 05:59:55;;;;;;;10.30;4.90;;;;;;;4.88;100.00;99068.56;177083;1265;46173;-80
2024/04/17 06:03:57;;;;;;;14.30;9.70;;;;;;;4.89;100.00;99075.81;176710;1261;44808;-84
2024/04/17 06:08:00;;;;;;;10.40;7.40;;;;;;;4.97;100.00;99078.70;176833;1262;58991;-83
2024/04/17 06:12:05;;;;;;;11.60;8.00;;;;;;;4.99;100.00;99079.27;177472;1263;46129;-83
2024/04/17 06:16:07;;;;;;;12.40;8.40;;;;;;;5.03;100.00;99082.85;176517;1263;46021;-83
2024/04/17 06:20:10;;;;;;;11.90;7.60;;;;;;;5.04;100.00;99084.20;176834;1262;46107;-84
2024/04/17 06:24:16;;;;;;;;;;;;;;;5.08;100.00;99087.20;176700;1265;46234;-82
2024/04/17 06:28:19;;;;;;;8.70;6.60;;;;;;;5.12;100.00;99086.05;176834;1262;58078;-84
2024/04/17 06:32:22;;;;;;;7.00;4.30;;;;;;;5.23;100.00;99097.50;176464;1263;46030;-83
2024/04/17 06:36:26;;;;;;;7.00;4.50;;;;;;;5.34;100.00;99099.83;176798;1261;46132;-84
2024/04/17 06:40:28;;;;;;;4.70;3.40;;;;;;;5.48;100.00;99101.83;177263;1262;46024;-84
2024/04/17 06:44:33;;;;;;;7.80;3.40;;;;;;;5.61;100.00;99106.09;176619;1265;46043;-83
2024/04/17 06:48:36;;;;;;;3.50;3.20;;;;;;;5.67;100.00;99110.88;176649;1262;58701;-82
2024/04/17 06:52:39;;;;;;;3.00;2.60;;;;;;;5.69;100.00;99118.47;176688;1265;46073;-84
2024/04/17 06:56:42;;;;;;;4.70;3.90;;;;;;;5.73;100.00;99123.81;176766;1265;47003;-84
2024/04/17 07:00:45;;;;;;;3.10;2.60;;;;;;;5.78;100.00;99131.31;176683;1262;45953;-85
2024/04/17 07:04:48;;;;;;;17.10;3.50;;;;;;;5.79;100.00;99137.16;176838;1262;46417;-84
2024/04/17 07:08:51;;;;;;;3.60;2.80;;;;;;;5.77;100.00;99136.83;177185;1262;58380;-85
2024/04/17 07:12:55;;;;;;;2.70;2.20;;;;;;;5.58;100.00;99144.52;176876;1261;46068;-84
2024/04/17 07:16:58;;;;;;;4.80;2.40;;;;;;;5.56;100.00;99145.49;176769;1262;46133;-84
2024/04/17 07:21:00;;;;;;;3.50;2.80;;;;;;;5.59;100.00;99150.57;176676;1262;46164;-80
2024/04/17 07:25:03;;;;;;;2.80;2.10;;;;;;;5.59;100.00;99154.60;176999;1262;45902;-84
2024/04/17 07:29:06;;;;;;;3.30;2.90;;;;;;;5.62;100.00;99162.84;176788;1262;59729;-83
2024/04/17 07:33:09;;;;;;;2.70;2.50;;;;;;;5.63;100.00;99163.64;177285;1262;46225;-84
2024/04/17 07:37:14;;;;;;;1.60;1.30;;;;;;;5.52;100.00;99163.08;176708;1262;46648;-84
2024/04/17 07:41:17;;;;;;;6.60;2.60;;;;;;;5.48;100.00;99166.75;177365;1265;46061;-84
2024/04/17 07:45:21;;;;;;;4.00;3.20;;;;;;;5.43;100.00;99175.55;176827;1263;46013;-83
2024/04/17 07:49:24;;;;;;;3.40;2.40;;;;;;;5.35;100.00;99179.19;177180;1262;58366;-83
2024/04/17 07:53:27;;;;;;;2.00;1.80;;;;;;;5.36;100.00;99189.80;176680;1262;46013;-84
2024/04/17 07:57:33;;;;;;;4.60;2.60;;;;;;;5.40;100.00;99187.92;176971;1263;46243;-83
2024/04/17 08:01:36;;;;;;;4.00;2.20;;;;;;;5.45;100.00;99185.09;176808;1262;46155;-84
2024/04/17 08:05:39;;;;;;;3.50;2.00;;;;;;;5.46;100.00;99188.66;177043;1262;44832;-83
2024/04/17 08:09:42;;;;;;;5.00;2.70;;;;;;;5.57;100.00;99193.96;176869;1262;58338;-83
2024/04/17 08:13:45;;;;;;;1.90;1.80;;;;;;;5.70;100.00;99196.69;176859;1262;46248;-82
2024/04/17 08:17:59;;;;;;;3.60;2.10;;;;;;;5.81;100.00;99198.25;176626;1265;46183;-84
2024/04/17 08:22:03;;;;;;;4.20;2.90;;;;;;;5.85;100.00;99203.44;176819;1263;46195;-84
2024/04/17 08:26:05;;;;;;;2.70;2.10;;;;;;;5.95;100.00;99204.27;176666;1262;194464;-83
2024/04/17 08:30:09;;;;;;;2.70;2.20;;;;;;;5.94;100.00;99209.95;176848;1262;59998;-81
2024/04/17 08:34:12;;;;;;;5.20;1.80;;;;;;;5.79;100.00;99213.00;177056;1262;46075;-81
2024/04/17 08:38:15;;;;;;;4.70;2.00;;;;;;;5.81;100.00;99219.59;177185;1265;46151;-84
2024/04/17 08:42:23;;;;;;;3.40;2.40;;;;;;;5.81;100.00;99226.21;177102;1262;45249;-84
2024/04/17 08:46:30;;;;;;;2.90;2.00;;;;;;;5.75;100.00;99231.14;176745;1263;46221;-83
2024/04/17 08:50:35;;;;;;;2.50;2.00;;;;;;;5.72;100.00;99238.90;177013;1262;59766;-83
2024/04/17 08:54:42;;;;;;;1.70;1.50;;;;;;;5.68;100.00;99246.40;177604;1262;45979;-84
2024/04/17 08:58:45;;;;;;;1.80;1.70;;;;;;;5.73;100.00;99253.06;177792;1262;44782;-84
2024/04/17 09:02:51;;;;;;;2.00;1.40;;;;;;;5.79;100.00;99251.55;177586;1261;46969;-84
2024/04/17 09:06:55;;;;;;;2.90;2.00;;;;;;;5.82;100.00;99256.42;177018;1262;46076;-81
2024/04/17 09:10:58;;;;;;;2.50;1.90;;;;;;;5.84;100.00;99255.58;177010;1261;58264;-83
2024/04/17 09:15:01;;;;;;;2.80;2.50;;;;;;;5.95;100.00;99260.17;176734;1262;46160;-83
2024/04/17 09:19:06;;;;;;;4.00;2.60;;;;;;;6.07;100.00;99262.10;176994;1262;46115;-83
2024/04/17 09:23:10;;;;;;;3.40;2.80;;;;;;;6.07;100.00;99266.88;176496;1262;46112;-84
2024/04/17 09:27:15;;;;;;;2.60;1.90;;;;;;;6.10;100.00;99266.76;176465;1265;46232;-83
2024/04/17 09:31:18;;;;;;;2.40;1.80;;;;;;;6.12;100.00;99269.77;176621;1262;58308;-82
2024/04/17 09:35:22;;;;;;;6.00;2.80;;;;;;;6.24;100.00;99271.52;176659;1262;45993;-84
2024/04/17 09:39:26;;;;;;;2.10;1.60;;;;;;;6.47;100.00;99273.33;176428;1262;46150;-83
2024/04/17 09:43:29;;;;;;;2.10;1.80;;;;;;;6.72;100.00;99277.52;176733;1266;46221;-84
2024/04/17 09:47:33;;;;;;;0.90;0.90;;;;;;;6.75;100.00;99282.70;177257;1263;46064;-85
2024/04/17 09:51:38;;;;;;;1.90;1.20;;;;;;;6.68;100.00;99289.11;177019;1262;58785;-85
2024/04/17 09:55:42;;;;;;;2.00;1.30;;;;;;;6.66;100.00;99288.02;177316;1262;46209;-85
2024/04/17 09:59:46;;;;;;;2.70;0.90;;;;;;;6.65;100.00;99292.31;176614;1265;45920;-85
2024/04/17 10:03:50;;;;;;;2.30;1.70;;;;;;;6.64;100.00;99295.39;177509;1263;46017;-83
2024/04/17 10:07:53;;;;;;;4.70;2.30;;;;;;;6.58;100.00;99297.12;176501;1265;46868;-84
2024/04/17 10:11:58;;;;;;;5.60;4.30;;;;;;;6.50;100.00;99298.67;176734;1263;58053;-84
2024/04/17 10:16:01;;;;;;;1.50;1.40;;;;;;;6.53;100.00;99303.37;176894;1263;46040;-85
2024/04/17 10:20:05;;;;;;;1.70;1.30;;;;;;;6.53;100.00;99305.48;177560;1263;46011;-85
2024/04/17 10:24:12;;;;;;;1.90;1.50;;;;;;;6.53;100.00;99308.42;177567;1263;46057;-84
2024/04/17 10:28:19;;;;;;;3.80;2.20;;;;;;;6.58;100.00;99306.86;176986;1262;45985;-84
2024/04/17 10:32:21;;;;;;;;;;;;;;;6.70;100.00;99305.83;176935;1261;59717;-84
2024/04/17 10:36:25;;;;;;;1.50;1.00;;;;;;;6.82;100.00;99308.94;176653;1264;46135;-84
2024/04/17 10:40:27;;;;;;;3.10;2.30;;;;;;;6.88;100.00;99313.41;176455;1263;46239;-83
2024/04/17 10:44:32;;;;;;;1.20;1.10;;;;;;;6.82;100.00;99318.26;176954;1262;46172;-83
2024/04/17 10:48:50;;;;;;;4.20;2.60;;;;;;;6.87;100.00;99318.95;176837;1263;45248;-84
2024/04/17 10:52:53;;;;;;;2.40;1.60;;;;;;;6.95;100.00;99320.77;176918;1263;59876;-85
2024/04/17 10:56:56;;;;;;;4.10;2.20;;;;;;;6.90;100.00;99330.68;176434;1263;46043;-84
2024/04/17 11:01:01;;;;;;;2.60;1.60;;;;;;;6.87;100.00;99332.02;176823;1264;46128;-83
2024/04/17 11:05:04;;;;;;;1.40;1.30;;;;;;;6.80;100.00;99333.09;176738;1262;46025;-82
2024/04/17 11:09:09;;;;;;;2.10;1.90;;;;;;;6.73;100.00;99338.05;176903;1262;46137;-85
2024/04/17 11:13:17;;;;;;;5.80;3.90;;;;;;;6.66;100.00;99342.84;176658;1263;59650;-84
2024/04/17 11:17:20;;;;;;;5.80;4.30;;;;;;;6.62;100.00;99339.82;177439;1263;46135;-84
2024/04/17 11:21:23;;;;;;;5.00;3.30;;;;;;;6.53;100.00;99344.08;177193;1262;46048;-83
2024/04/17 11:25:26;;;;;;;5.00;3.20;;;;;;;6.56;100.00;99347.48;176846;1263;46231;-84
2024/04/17 11:29:29;;;;;;;4.70;3.60;;;;;;;6.66;100.00;99350.58;176791;1263;46156;-84
2024/04/17 11:33:46;;;;;;;3.30;2.70;;;;;;;6.73;100.00;99349.72;176657;1265;59464;-84
2024/04/17 11:37:50;;;;;;;2.70;2.40;;;;;;;6.82;100.00;99350.21;176860;1265;46013;-83
2024/04/17 11:41:53;;;;;;;2.70;2.50;;;;;;;6.93;100.00;99351.41;177197;1263;45950;-85
2024/04/17 11:45:56;;;;;;;4.40;4.10;;;;;;;7.01;100.00;99353.74;176903;1262;45972;-84
2024/04/17 11:49:59;;;;;;;3.40;2.50;;;;;;;7.06;100.00;99357.95;177082;1262;46124;-85
2024/04/17 11:54:03;;;;;;;2.20;2.00;;;;;;;6.91;100.00;99362.16;176839;1262;58089;-85
2024/04/17 11:58:07;;;;;;;2.10;1.70;;;;;;;7.00;100.00;99362.44;176941;1262;46021;-84
2024/04/17 12:02:10;;;;;;;2.00;1.80;;;;;;;7.08;100.00;99368.95;177059;1263;46142;-85
2024/04/17 12:06:14;;;;;;;3.60;3.10;;;;;;;7.18;100.00;99367.66;176675;1263;46103;-85
2024/04/17 12:10:19;;;;;;;4.50;2.20;;;;;;;7.24;100.00;99369.35;176851;1265;46116;-85
2024/04/17 12:14:22;;;;;;;2.50;1.80;;;;;;;7.11;100.00;99370.08;177327;1261;59592;-85
2024/04/17 12:18:25;;;;;;;1.70;1.50;;;;;;;7.09;100.00;99369.87;176989;1262;46031;-83
2024/04/17 12:22:27;;;;;;;5.50;1.60;;;;;;;7.09;100.00;99370.05;176523;1262;46080;-85
2024/04/17 12:30:52;;;;;;;1.80;1.50;;;;;;;6.91;100.00;99380.17;176703;1265;46028;-85
2024/04/17 12:34:55;;;;;;;1.80;1.60;;;;;;;6.89;100.00;99382.58;177063;1263;58005;-84
2024/04/17 12:38:59;;;;;;;2.20;1.80;;;;;;;6.92;100.00;99383.21;176658;1263;46164;-85
2024/04/17 12:43:01;;;;;;;2.90;2.00;;;;;;;6.94;100.00;99383.02;177037;1263;46170;-84
2024/04/17 12:47:04;;;;;;;2.40;1.90;;;;;;;6.98;100.00;99383.24;176895;1263;46018;-85
2024/04/17 12:51:07;;;;;;;5.70;1.80;;;;;;;7.18;100.00;99382.73;176950;1265;46136;-85
2024/04/17 12:55:10;;;;;;;1.80;1.50;;;;;;;7.44;100.00;99382.70;176870;1263;59645;-85
2024/04/17 12:59:14;;;;;;;2.30;1.40;;;;;;;7.67;100.00;99381.11;176522;1265;46045;-85
2024/04/17 13:03:17;;;;;;;2.50;2.30;;;;;;;7.96;100.00;99376.27;176647;1263;46134;-84
2024/04/17 13:07:20;;;;;;;2.40;2.00;;;;;;;8.11;100.00;99379.23;176886;1263;46167;-84
2024/04/17 13:11:23;;;;;;;2.40;2.10;;;;;;;8.18;100.00;99381.66;176906;1263;46076;-85
2024/04/17 13:15:26;;;;;;;1.80;1.70;;;;;;;8.08;100.00;99382.08;176655;1263;59351;-84
2024/04/17 13:19:29;;;;;;;2.30;2.10;;;;;;;8.06;100.00;99390.21;176756;1266;46203;-85
2024/04/17 13:23:33;;;;;;;1.70;1.60;;;;;;;7.96;100.00;99388.80;176689;1263;46122;-84
2024/04/17 13:27:36;;;;;;;2.00;1.80;;;;;;;7.99;100.00;99383.23;177024;1266;46144;-84
2024/04/17 13:31:39;;;;;;;3.60;1.80;;;;;;;8.08;100.00;99383.52;177402;1263;46063;-84
2024/04/17 13:35:42;;;;;;;2.40;2.00;;;;;;;8.20;100.00;99384.64;176979;1263;59215;-84
2024/04/17 13:39:45;;;;;;;3.00;2.70;;;;;;;8.23;100.00;99381.33;176785;1262;46124;-85
2024/04/17 13:43:48;;;;;;;2.80;2.20;;;;;;;8.34;100.00;99383.43;177061;1263;46449;-85
2024/04/17 13:47:51;;;;;;;5.10;3.40;;;;;;;8.47;100.00;99380.96;176784;1264;46151;-83
2024/04/17 13:51:53;;;;;;;4.40;2.90;;;;;;;8.55;100.00;99380.60;176754;1262;46161;-84
2024/04/17 13:55:56;;;;;;;2.60;2.40;;;;;;;8.63;100.00;99374.59;176805;1264;59248;-82
2024/04/17 13:59:59;;;;;;;3.80;2.80;;;;;;;8.73;100.00;99372.87;176680;1264;46039;-85
2024/04/17 14:04:02;;;;;;;2.30;1.80;;;;;;;8.72;99.72;99365.70;177390;1263;46018;-85
2024/04/17 14:08:07;;;;;;;2.20;2.00;;;;;;;8.83;99.21;99366.35;176482;1267;47409;-85
2024/04/17 14:12:10;;;;;;;4.20;1.80;;;;;;;8.96;94.54;99364.05;177343;1262;46064;-85
2024/04/17 14:16:13;;;;;;;2.70;1.90;;;;;;;9.21;92.33;99364.00;176955;1262;58340;-86
2024/04/17 14:20:17;;;;;;;3.30;1.90;;;;;;;9.49;89.09;99361.59;176820;1264;46126;-85
2024/04/17 14:24:20;;;;;;;1.90;1.70;;;;;;;9.72;87.71;99363.97;176726;1261;46017;-85
2024/04/17 14:28:24;;;;;;;1.40;1.10;;;;;;;10.00;86.61;99358.35;176785;1265;46164;-86
2024/04/17 14:32:27;;;;;;;1.60;1.40;;;;;;;10.09;83.67;99355.05;176865;1265;46208;-84
2024/04/17 14:36:30;;;;;;;1.30;1.20;;;;;;;10.13;81.60;99349.13;176848;1267;59614;-86
2024/04/17 14:40:32;;;;;;;1.20;1.20;;;;;;;10.27;81.55;99349.04;177023;1264;45837;-85
2024/04/17 14:44:38;;;;;;;1.50;1.40;;;;;;;10.44;80.81;99350.32;177059;1262;46057;-86
2024/04/17 14:48:41;;;;;;;2.80;1.60;;;;;;;10.67;82.41;99344.44;176488;1262;46063;-83
2024/04/17 14:52:43;;;;;;;1.30;1.10;;;;;;;10.79;78.76;99340.92;176320;1262;46005;-83
2024/04/17 14:56:48;;;;;;;1.40;1.10;;;;;;;10.80;78.35;99339.61;176642;1263;59433;-83
2024/04/17 15:00:51;;;;;;;2.50;0.80;;;;;;;10.82;75.73;99334.97;177366;1262;46054;-80
2024/04/17 15:04:54;;;;;;;2.00;1.50;;;;;;;10.92;75.73;99339.14;176802;1262;46152;-84
2024/04/17 15:08:57;;;;;;;1.40;1.10;;;;;;;11.01;75.83;99346.11;176756;1261;46059;-84
2024/04/17 15:12:59;;;;;;;1.60;1.20;;;;;;;10.87;74.49;99341.90;176674;1262;46254;-85
2024/04/17 15:17:03;;;;;;;1.50;1.40;;;;;;;10.73;75.61;99336.97;177253;1264;57620;-84
2024/04/17 15:21:15;;;;;;;1.90;1.60;;;;;;;10.70;75.01;99338.23;176734;1266;46006;-85
2024/04/17 15:25:17;;;;;;;1.60;1.40;;;;;;;10.85;74.75;99339.81;176899;1262;46128;-85
2024/04/17 15:29:21;;;;;;;2.20;2.00;;;;;;;11.00;74.26;99340.69;176461;1263;46058;-85
2024/04/17 15:33:24;;;;;;;2.60;1.60;;;;;;;11.15;72.67;99337.65;177025;1263;46144;-84
2024/04/17 15:37:27;;;;;;;2.70;1.70;;;;;;;11.30;72.72;99339.82;177209;1264;58279;-84
2024/04/17 15:41:31;;;;;;;2.30;1.60;;;;;;;11.31;74.82;99340.30;177497;1264;46131;-84
2024/04/17 15:45:34;;;;;;;1.60;1.20;;;;;;;11.40;75.82;99341.71;177028;1266;46126;-85
2024/04/17 15:49:37;;;;;;;2.50;1.50;;;;;;;11.54;77.36;99333.94;177437;1264;46044;-84
2024/04/17 15:53:45;;;;;;;2.10;1.20;;;;;;;11.70;75.48;99333.45;176836;1266;46216;-84
2024/04/17 15:57:49;;;;;;;2.50;1.50;;;;;;;11.77;74.02;99334.77;176644;1264;59661;-85
2024/04/17 16:01:53;;;;;;;2.40;1.30;;;;;;;11.67;72.96;99337.09;177466;1263;44732;-84
2024/04/17 16:05:56;;;;;;;2.10;1.80;;;;;;;11.52;71.92;99338.04;177154;1262;46128;-85
2024/04/17 16:09:59;;;;;;;1.00;0.90;;;;;;;11.55;73.74;99342.67;177116;1263;46017;-85
2024/04/17 16:14:02;;;;;;;1.90;0.80;;;;;;;11.56;72.76;99340.24;177251;1264;46091;-84
2024/04/17 16:18:05;;;;;;;2.80;1.70;;;;;;;11.37;70.79;99344.13;176717;1264;59679;-85
2024/04/17 16:22:08;;;;;;;2.50;0.80;;;;;;;11.21;69.83;99339.70;176194;1267;45820;-85
2024/04/17 16:26:13;;;;;;;1.80;1.70;;;;;;;10.79;71.28;99344.34;177205;1266;46158;-85
2024/04/17 16:30:17;;;;;;;2.20;1.20;;;;;;;10.60;72.07;99352.91;177535;1264;46173;-85
2024/04/17 16:34:20;;;;;;;1.90;1.10;;;;;;;10.44;74.31;99355.47;177206;1264;46031;-84
2024/04/17 16:38:22;;;;;;;1.40;1.30;;;;;;;10.11;80.43;99358.34;177021;1264;59866;-85
2024/04/17 16:42:25;;;;;;;3.20;2.00;;;;;;;9.96;80.49;99365.09;176890;1264;46202;-85
2024/04/17 16:46:28;;;;;;;8.10;2.50;;;;;;;9.92;80.78;99367.98;177498;1264;45932;-83
2024/04/17 16:50:32;;;;;;;3.30;1.60;;;;;;;9.96;80.94;99367.89;177033;1266;46225;-85
2024/04/17 16:54:36;;;;;;;5.30;1.70;;;;;;;9.96;79.57;99369.72;176883;1263;46077;-85
2024/04/17 16:58:39;;;;;;;2.60;1.20;;;;;;;9.97;79.29;99366.05;176964;1264;57934;-85
2024/04/17 17:02:43;;;;;;;3.00;1.80;;;;;;;10.00;79.90;99367.73;176357;1264;46292;-84
2024/04/17 17:06:47;;;;;;;2.20;2.00;;;;;;;9.95;82.45;99376.57;176927;1263;46228;-85
2024/04/17 17:10:50;;;;;;;1.30;0.80;;;;;;;9.82;83.02;99377.69;176862;1264;46000;-83
2024/04/17 17:14:56;;;;;;;6.30;2.70;;;;;;;9.75;85.83;99380.69;176541;1262;46131;-84
2024/04/17 17:18:59;;;;;;;1.70;1.40;;;;;;;9.65;87.49;99382.48;177239;1262;59704;-83
2024/04/17 17:23:02;;;;;;;2.40;1.90;;;;;;;9.49;88.26;99384.81;177276;1261;44960;-85
2024/04/17 17:27:05;;;;;;;2.50;2.10;;;;;;;9.31;89.35;99389.99;177941;1261;46000;-85
2024/04/17 17:31:08;;;;;;;3.10;2.00;;;;;;;8.97;93.68;99396.20;177123;1262;45871;-81
2024/04/17 17:35:11;;;;;;;2.40;2.20;;;;;;;8.58;96.88;99405.28;177000;1261;46016;-82
2024/04/17 17:39:14;;;;;;;3.10;2.30;;;;;;;8.23;99.17;99410.20;176434;1263;59646;-84
2024/04/17 17:43:28;;;;;;;4.30;3.10;;;;;;;7.87;100.00;99413.84;176642;1266;46152;-84
2024/04/17 17:47:31;;;;;;;4.40;3.00;;;;;;;7.56;100.00;99417.14;176728;1263;45931;-84
2024/04/17 17:51:35;;;;;;;4.30;2.60;;;;;;;7.33;100.00;99420.14;176645;1262;46189;-85
2024/04/17 17:55:38;;;;;;;3.20;2.80;;;;;;;7.23;100.00;99424.12;176885;1260;46067;-84
2024/04/17 17:59:42;;;;;;;3.00;2.40;;;;;;;7.25;100.00;99429.06;178368;1262;57963;-85
2024/04/17 18:03:46;;;;;;;3.60;2.50;;;;;;;7.28;100.00;99430.73;176992;1263;46078;-84
2024/04/17 18:07:50;;;;;;;4.60;3.30;;;;;;;7.31;100.00;99432.84;177108;1262;46196;-83
2024/04/17 18:11:52;;;;;;;4.50;4.10;;;;;;;7.36;100.00;99430.83;176894;1262;46456;-82
2024/04/17 18:15:56;;;;;;;5.80;3.60;;;;;;;7.40;100.00;99434.76;176827;1262;46060;-84
2024/04/17 18:19:59;;;;;;;5.90;4.20;;;;;;;7.42;99.74;99441.58;176877;1263;59839;-83
2024/04/17 18:24:02;;;;;;;7.00;5.40;;;;;;;7.47;98.59;99446.90;176757;1261;46134;-83
2024/04/17 18:28:05;;;;;;;11.30;6.10;;;;;;;7.49;98.29;99449.18;176393;1265;46147;-82
2024/04/17 18:32:08;;;;;;;19.50;8.50;;;;;;;7.51;98.91;99455.84;177124;1264;46030;-83
2024/04/17 18:36:21;;;;;;;8.10;6.50;;;;;;;7.53;99.72;99462.41;177023;1261;46046;-82
2024/04/17 18:40:26;;;;;;;8.00;6.10;;;;;;;7.54;100.00;99470.78;177087;1264;59625;-83
2024/04/17 18:44:28;;;;;;;13.00;8.90;;;;;;;7.38;100.00;99479.50;177358;1263;46197;-84
2024/04/17 18:48:31;;;;;;;5.20;3.60;;;;;;;7.05;100.00;99487.05;177170;1263;46146;-83
2024/04/17 18:52:34;;;;;;;1.70;1.60;;;;;;;6.84;100.00;99486.46;177528;1263;45961;-83
2024/04/17 18:56:37;;;;;;;5.00;1.90;;;;;;;6.77;100.00;99487.86;176652;1267;46161;-84
2024/04/17 19:00:40;;;;;;;1.70;1.60;;;;;;;6.72;100.00;99487.91;177124;1262;58592;-84